sensor_id;sensor_type;location;lat;lon;timestamp;P1;durP1;ratioP1;P2;durP2;ratioP2
20480;SDS011;10399;50.754;3.366;2023-12-20T00:04:13;18.67;;;4.38;;
20480;SDS011;10399;50.754;3.366;2023-12-20T00:06:42;15.85;;;4.13;;
20480;SDS011;10399;50.754;3.366;2023-12-20T00:09:18;14.18;;;4.57;;
20480;SDS011;10399;50.754;3.366;2023-12-20T00:11:48;15.45;;;4.03;;
20480;SDS011;10399;50.754;3.366;2023-12-20T00:14:15;23.08;;;5.00;;
20480;SDS011;10399;50.754;3.366;2023-12-20T00:16:42;13.38;;;4.32;;
20480;SDS011;10399;50.754;3.366;2023-12-20T00:19:30;25.25;;;5.00;;
20480;SDS011;10399;50.754;3.366;2023-12-20T00:21:58;16.42;;;4.43;;
20480;SDS011;10399;50.754;3.366;2023-12-20T00:24:26;11.85;;;3.90;;
20480;SDS011;10399;50.754;3.366;2023-12-20T00:26:56;16.38;;;4.30;;
20480;SDS011;10399;50.754;3.366;2023-12-20T00:29:23;16.05;;;3.80;;
20480;SDS011;10399;50.754;3.366;2023-12-20T00:34:37;17.77;;;4.53;;
20480;SDS011;10399;50.754;3.366;2023-12-20T00:37:05;21.98;;;4.22;;
20480;SDS011;10399;50.754;3.366;2023-12-20T00:39:32;13.50;;;4.00;;
20480;SDS011;10399;50.754;3.366;2023-12-20T00:41:59;12.80;;;4.00;;
20480;SDS011;10399;50.754;3.366;2023-12-20T00:44:32;16.25;;;3.45;;
20480;SDS011;10399;50.754;3.366;2023-12-20T00:47:15;10.80;;;3.38;;
20480;SDS011;10399;50.754;3.366;2023-12-20T00:49:42;14.43;;;3.80;;
20480;SDS011;10399;50.754;3.366;2023-12-20T00:52:12;15.52;;;4.40;;
20480;SDS011;10399;50.754;3.366;2023-12-20T00:54:55;26.17;;;5.32;;
20480;SDS011;10399;50.754;3.366;2023-12-20T00:57:28;15.38;;;4.30;;
20480;SDS011;10399;50.754;3.366;2023-12-20T00:59:55;20.15;;;5.03;;
20480;SDS011;10399;50.754;3.366;2023-12-20T01:02:22;17.90;;;4.43;;
20480;SDS011;10399;50.754;3.366;2023-12-20T01:04:49;13.98;;;4.38;;
20480;SDS011;10399;50.754;3.366;2023-12-20T01:07:16;17.90;;;4.65;;
20480;SDS011;10399;50.754;3.366;2023-12-20T01:12:32;16.17;;;3.83;;
20480;SDS011;10399;50.754;3.366;2023-12-20T01:14:59;21.30;;;3.97;;
20480;SDS011;10399;50.754;3.366;2023-12-20T01:17:26;8.50;;;3.00;;
20480;SDS011;10399;50.754;3.366;2023-12-20T01:23:04;14.55;;;2.95;;
20480;SDS011;10399;50.754;3.366;2023-12-20T01:25:31;14.73;;;3.42;;
20480;SDS011;10399;50.754;3.366;2023-12-20T01:27:58;11.57;;;3.00;;
20480;SDS011;10399;50.754;3.366;2023-12-20T01:30:25;14.18;;;3.30;;
20480;SDS011;10399;50.754;3.366;2023-12-20T01:33:14;11.88;;;3.00;;
20480;SDS011;10399;50.754;3.366;2023-12-20T01:35:41;8.60;;;2.80;;
20480;SDS011;10399;50.754;3.366;2023-12-20T01:38:08;11.50;;;3.20;;
20480;SDS011;10399;50.754;3.366;2023-12-20T01:40:35;10.45;;;4.25;;
20480;SDS011;10399;50.754;3.366;2023-12-20T01:43:08;15.77;;;4.10;;
20480;SDS011;10399;50.754;3.366;2023-12-20T01:48:28;20.52;;;3.65;;
20480;SDS011;10399;50.754;3.366;2023-12-20T01:50:59;16.38;;;3.88;;
20480;SDS011;10399;50.754;3.366;2023-12-20T01:53:27;12.45;;;3.75;;
20480;SDS011;10399;50.754;3.366;2023-12-20T01:55:56;17.05;;;4.18;;
20480;SDS011;10399;50.754;3.366;2023-12-20T01:59:01;10.23;;;3.30;;
20480;SDS011;10399;50.754;3.366;2023-12-20T02:01:31;9.90;;;3.22;;
20480;SDS011;10399;50.754;3.366;2023-12-20T02:03:58;18.50;;;4.28;;
20480;SDS011;10399;50.754;3.366;2023-12-20T02:06:28;13.02;;;3.75;;
20480;SDS011;10399;50.754;3.366;2023-12-20T02:08:58;13.27;;;3.80;;
20480;SDS011;10399;50.754;3.366;2023-12-20T02:11:25;16.75;;;3.60;;
20480;SDS011;10399;50.754;3.366;2023-12-20T02:13:53;16.08;;;3.60;;
20480;SDS011;10399;50.754;3.366;2023-12-20T02:16:21;10.65;;;3.35;;
20480;SDS011;10399;50.754;3.366;2023-12-20T02:18:48;17.63;;;3.80;;
20480;SDS011;10399;50.754;3.366;2023-12-20T02:21:16;13.68;;;3.55;;
20480;SDS011;10399;50.754;3.366;2023-12-20T02:23:43;15.85;;;3.17;;
20480;SDS011;10399;50.754;3.366;2023-12-20T02:26:10;15.48;;;3.33;;
20480;SDS011;10399;50.754;3.366;2023-12-20T02:28:40;20.92;;;3.33;;
20480;SDS011;10399;50.754;3.366;2023-12-20T02:31:07;13.07;;;3.33;;
20480;SDS011;10399;50.754;3.366;2023-12-20T02:33:34;16.50;;;3.00;;
20480;SDS011;10399;50.754;3.366;2023-12-20T02:36:01;16.48;;;3.53;;
20480;SDS011;10399;50.754;3.366;2023-12-20T02:38:29;18.95;;;4.60;;
20480;SDS011;10399;50.754;3.366;2023-12-20T02:40:56;11.90;;;2.75;;
20480;SDS011;10399;50.754;3.366;2023-12-20T02:43:23;11.85;;;2.70;;
20480;SDS011;10399;50.754;3.366;2023-12-20T02:45:50;13.35;;;2.95;;
20480;SDS011;10399;50.754;3.366;2023-12-20T02:48:17;15.63;;;3.22;;
20480;SDS011;10399;50.754;3.366;2023-12-20T02:50:45;10.35;;;3.20;;
20480;SDS011;10399;50.754;3.366;2023-12-20T02:53:13;9.50;;;2.95;;
20480;SDS011;10399;50.754;3.366;2023-12-20T02:55:41;16.05;;;3.22;;
20480;SDS011;10399;50.754;3.366;2023-12-20T02:58:08;11.13;;;2.85;;
20480;SDS011;10399;50.754;3.366;2023-12-20T03:00:35;12.57;;;2.70;;
20480;SDS011;10399;50.754;3.366;2023-12-20T03:03:02;15.45;;;2.88;;
20480;SDS011;10399;50.754;3.366;2023-12-20T03:05:29;13.23;;;3.30;;
20480;SDS011;10399;50.754;3.366;2023-12-20T03:07:57;13.57;;;2.83;;
20480;SDS011;10399;50.754;3.366;2023-12-20T03:10:24;12.07;;;3.13;;
20480;SDS011;10399;50.754;3.366;2023-12-20T03:12:53;13.60;;;2.58;;
20480;SDS011;10399;50.754;3.366;2023-12-20T03:15:22;11.13;;;2.65;;
20480;SDS011;10399;50.754;3.366;2023-12-20T03:17:49;9.73;;;2.72;;
20480;SDS011;10399;50.754;3.366;2023-12-20T03:20:17;10.93;;;3.20;;
20480;SDS011;10399;50.754;3.366;2023-12-20T03:22:44;10.55;;;2.60;;
20480;SDS011;10399;50.754;3.366;2023-12-20T03:25:11;11.40;;;2.90;;
20480;SDS011;10399;50.754;3.366;2023-12-20T03:27:38;13.13;;;2.67;;
20480;SDS011;10399;50.754;3.366;2023-12-20T03:30:05;9.77;;;2.65;;
20480;SDS011;10399;50.754;3.366;2023-12-20T03:32:33;14.07;;;2.42;;
20480;SDS011;10399;50.754;3.366;2023-12-20T03:35:00;13.57;;;3.67;;
20480;SDS011;10399;50.754;3.366;2023-12-20T03:37:28;14.10;;;2.33;;
20480;SDS011;10399;50.754;3.366;2023-12-20T03:39:57;11.60;;;2.60;;
20480;SDS011;10399;50.754;3.366;2023-12-20T03:42:25;20.90;;;3.17;;
20480;SDS011;10399;50.754;3.366;2023-12-20T03:44:52;10.25;;;2.83;;
20480;SDS011;10399;50.754;3.366;2023-12-20T03:47:19;12.57;;;2.35;;
20480;SDS011;10399;50.754;3.366;2023-12-20T03:49:46;14.15;;;2.72;;
20480;SDS011;10399;50.754;3.366;2023-12-20T03:52:13;14.57;;;3.00;;
20480;SDS011;10399;50.754;3.366;2023-12-20T03:54:40;18.02;;;2.70;;
20480;SDS011;10399;50.754;3.366;2023-12-20T03:57:09;11.45;;;2.92;;
20480;SDS011;10399;50.754;3.366;2023-12-20T03:59:36;14.45;;;2.65;;
20480;SDS011;10399;50.754;3.366;2023-12-20T04:02:04;12.52;;;2.65;;
20480;SDS011;10399;50.754;3.366;2023-12-20T04:04:31;15.85;;;2.83;;
20480;SDS011;10399;50.754;3.366;2023-12-20T04:06:58;15.57;;;2.95;;
20480;SDS011;10399;50.754;3.366;2023-12-20T04:09:27;15.40;;;2.83;;
20480;SDS011;10399;50.754;3.366;2023-12-20T04:11:53;17.65;;;2.85;;
20480;SDS011;10399;50.754;3.366;2023-12-20T04:14:20;19.65;;;2.63;;
20480;SDS011;10399;50.754;3.366;2023-12-20T04:16:47;21.05;;;3.13;;
20480;SDS011;10399;50.754;3.366;2023-12-20T04:19:15;15.02;;;2.45;;
20480;SDS011;10399;50.754;3.366;2023-12-20T04:21:42;10.93;;;2.55;;
20480;SDS011;10399;50.754;3.366;2023-12-20T04:24:09;13.60;;;2.30;;
20480;SDS011;10399;50.754;3.366;2023-12-20T04:26:36;18.85;;;2.53;;
20480;SDS011;10399;50.754;3.366;2023-12-20T04:29:03;22.33;;;3.20;;
20480;SDS011;10399;50.754;3.366;2023-12-20T04:31:30;13.65;;;2.63;;
20480;SDS011;10399;50.754;3.366;2023-12-20T04:33:57;9.48;;;2.20;;
20480;SDS011;10399;50.754;3.366;2023-12-20T04:36:24;18.88;;;3.17;;
20480;SDS011;10399;50.754;3.366;2023-12-20T04:38:53;14.13;;;2.38;;
20480;SDS011;10399;50.754;3.366;2023-12-20T04:41:20;17.33;;;2.85;;
20480;SDS011;10399;50.754;3.366;2023-12-20T04:43:47;11.35;;;3.05;;
20480;SDS011;10399;50.754;3.366;2023-12-20T04:46:15;13.20;;;3.08;;
20480;SDS011;10399;50.754;3.366;2023-12-20T04:48:42;10.23;;;2.47;;
20480;SDS011;10399;50.754;3.366;2023-12-20T04:51:09;15.35;;;3.08;;
20480;SDS011;10399;50.754;3.366;2023-12-20T04:53:36;20.50;;;2.70;;
20480;SDS011;10399;50.754;3.366;2023-12-20T04:56:03;14.70;;;2.60;;
20480;SDS011;10399;50.754;3.366;2023-12-20T04:58:30;12.95;;;2.40;;
20480;SDS011;10399;50.754;3.366;2023-12-20T05:00:57;21.33;;;3.25;;
20480;SDS011;10399;50.754;3.366;2023-12-20T05:03:24;14.43;;;3.13;;
20480;SDS011;10399;50.754;3.366;2023-12-20T05:05:51;13.45;;;2.28;;
20480;SDS011;10399;50.754;3.366;2023-12-20T05:08:18;8.98;;;1.88;;
20480;SDS011;10399;50.754;3.366;2023-12-20T05:10:46;17.55;;;2.42;;
20480;SDS011;10399;50.754;3.366;2023-12-20T05:13:13;16.25;;;2.60;;
20480;SDS011;10399;50.754;3.366;2023-12-20T05:15:40;13.68;;;2.63;;
20480;SDS011;10399;50.754;3.366;2023-12-20T05:18:07;16.27;;;4.40;;
20480;SDS011;10399;50.754;3.366;2023-12-20T05:20:34;16.30;;;2.90;;
20480;SDS011;10399;50.754;3.366;2023-12-20T05:23:02;11.90;;;2.30;;
20480;SDS011;10399;50.754;3.366;2023-12-20T05:25:29;12.95;;;2.80;;
20480;SDS011;10399;50.754;3.366;2023-12-20T05:27:58;16.02;;;3.00;;
20480;SDS011;10399;50.754;3.366;2023-12-20T05:30:25;12.98;;;2.97;;
20480;SDS011;10399;50.754;3.366;2023-12-20T05:32:53;11.70;;;2.30;;
20480;SDS011;10399;50.754;3.366;2023-12-20T05:35:20;13.70;;;3.03;;
20480;SDS011;10399;50.754;3.366;2023-12-20T05:37:51;15.38;;;2.25;;
20480;SDS011;10399;50.754;3.366;2023-12-20T05:40:18;16.48;;;2.60;;
20480;SDS011;10399;50.754;3.366;2023-12-20T05:42:46;10.82;;;2.58;;
20480;SDS011;10399;50.754;3.366;2023-12-20T05:45:12;10.55;;;3.20;;
20480;SDS011;10399;50.754;3.366;2023-12-20T05:47:41;17.63;;;2.63;;
20480;SDS011;10399;50.754;3.366;2023-12-20T05:50:08;10.50;;;2.13;;
20480;SDS011;10399;50.754;3.366;2023-12-20T05:52:35;11.82;;;2.35;;
20480;SDS011;10399;50.754;3.366;2023-12-20T05:55:02;13.23;;;2.70;;
20480;SDS011;10399;50.754;3.366;2023-12-20T05:57:29;12.07;;;2.55;;
20480;SDS011;10399;50.754;3.366;2023-12-20T05:59:56;16.95;;;2.95;;
20480;SDS011;10399;50.754;3.366;2023-12-20T06:02:23;19.88;;;2.63;;
20480;SDS011;10399;50.754;3.366;2023-12-20T06:04:50;11.77;;;1.83;;
20480;SDS011;10399;50.754;3.366;2023-12-20T06:07:18;13.23;;;2.33;;
20480;SDS011;10399;50.754;3.366;2023-12-20T06:09:45;14.82;;;2.55;;
20480;SDS011;10399;50.754;3.366;2023-12-20T06:12:12;12.98;;;2.35;;
20480;SDS011;10399;50.754;3.366;2023-12-20T06:14:39;16.70;;;2.80;;
20480;SDS011;10399;50.754;3.366;2023-12-20T06:17:06;11.55;;;2.65;;
20480;SDS011;10399;50.754;3.366;2023-12-20T06:19:33;18.85;;;2.53;;
20480;SDS011;10399;50.754;3.366;2023-12-20T06:22:01;18.85;;;2.42;;
20480;SDS011;10399;50.754;3.366;2023-12-20T06:24:33;13.93;;;2.92;;
20480;SDS011;10399;50.754;3.366;2023-12-20T06:27:00;16.10;;;2.25;;
20480;SDS011;10399;50.754;3.366;2023-12-20T06:29:27;14.05;;;2.83;;
20480;SDS011;10399;50.754;3.366;2023-12-20T06:31:55;14.02;;;2.00;;
20480;SDS011;10399;50.754;3.366;2023-12-20T06:34:22;7.90;;;2.75;;
20480;SDS011;10399;50.754;3.366;2023-12-20T06:36:49;11.73;;;2.40;;
20480;SDS011;10399;50.754;3.366;2023-12-20T06:39:16;10.27;;;2.00;;
20480;SDS011;10399;50.754;3.366;2023-12-20T06:41:43;12.20;;;2.58;;
20480;SDS011;10399;50.754;3.366;2023-12-20T06:44:10;15.10;;;2.20;;
20480;SDS011;10399;50.754;3.366;2023-12-20T06:46:37;16.15;;;2.50;;
20480;SDS011;10399;50.754;3.366;2023-12-20T06:49:04;13.80;;;2.60;;
20480;SDS011;10399;50.754;3.366;2023-12-20T06:51:32;15.60;;;2.75;;
20480;SDS011;10399;50.754;3.366;2023-12-20T06:53:59;11.05;;;2.53;;
20480;SDS011;10399;50.754;3.366;2023-12-20T06:56:26;15.80;;;2.88;;
20480;SDS011;10399;50.754;3.366;2023-12-20T06:58:54;21.20;;;2.65;;
20480;SDS011;10399;50.754;3.366;2023-12-20T07:01:27;14.63;;;2.88;;
20480;SDS011;10399;50.754;3.366;2023-12-20T07:04:10;12.30;;;3.00;;
20480;SDS011;10399;50.754;3.366;2023-12-20T07:06:53;12.07;;;2.83;;
20480;SDS011;10399;50.754;3.366;2023-12-20T07:09:24;13.90;;;2.78;;
20480;SDS011;10399;50.754;3.366;2023-12-20T07:11:52;12.60;;;2.75;;
20480;SDS011;10399;50.754;3.366;2023-12-20T07:14:22;19.08;;;3.40;;
20480;SDS011;10399;50.754;3.366;2023-12-20T07:16:53;19.05;;;3.47;;
20480;SDS011;10399;50.754;3.366;2023-12-20T07:19:20;13.35;;;3.47;;
20480;SDS011;10399;50.754;3.366;2023-12-20T07:21:47;15.35;;;2.95;;
20480;SDS011;10399;50.754;3.366;2023-12-20T07:24:14;14.23;;;3.47;;
20480;SDS011;10399;50.754;3.366;2023-12-20T07:26:41;21.42;;;3.40;;
20480;SDS011;10399;50.754;3.366;2023-12-20T07:29:09;13.95;;;3.05;;
20480;SDS011;10399;50.754;3.366;2023-12-20T07:31:37;17.60;;;3.35;;
20480;SDS011;10399;50.754;3.366;2023-12-20T07:34:05;8.25;;;2.35;;
20480;SDS011;10399;50.754;3.366;2023-12-20T07:36:32;24.25;;;3.53;;
20480;SDS011;10399;50.754;3.366;2023-12-20T07:38:59;16.83;;;3.53;;
20480;SDS011;10399;50.754;3.366;2023-12-20T07:41:29;15.05;;;3.00;;
20480;SDS011;10399;50.754;3.366;2023-12-20T07:43:56;18.10;;;3.40;;
20480;SDS011;10399;50.754;3.366;2023-12-20T07:46:23;15.20;;;2.90;;
20480;SDS011;10399;50.754;3.366;2023-12-20T07:48:51;18.40;;;3.30;;
20480;SDS011;10399;50.754;3.366;2023-12-20T07:51:18;14.05;;;2.92;;
20480;SDS011;10399;50.754;3.366;2023-12-20T07:53:45;12.40;;;2.65;;
20480;SDS011;10399;50.754;3.366;2023-12-20T07:56:15;15.05;;;3.78;;
20480;SDS011;10399;50.754;3.366;2023-12-20T07:58:43;18.85;;;3.53;;
20480;SDS011;10399;50.754;3.366;2023-12-20T08:01:18;12.50;;;3.00;;
20480;SDS011;10399;50.754;3.366;2023-12-20T08:03:48;18.00;;;3.30;;
20480;SDS011;10399;50.754;3.366;2023-12-20T08:06:16;12.82;;;3.35;;
20480;SDS011;10399;50.754;3.366;2023-12-20T08:08:44;13.60;;;3.22;;
20480;SDS011;10399;50.754;3.366;2023-12-20T08:11:18;20.25;;;3.28;;
20480;SDS011;10399;50.754;3.366;2023-12-20T08:13:45;18.85;;;3.40;;
20480;SDS011;10399;50.754;3.366;2023-12-20T08:16:12;22.35;;;3.65;;
20480;SDS011;10399;50.754;3.366;2023-12-20T08:18:40;13.63;;;3.13;;
20480;SDS011;10399;50.754;3.366;2023-12-20T08:21:07;17.88;;;3.58;;
20480;SDS011;10399;50.754;3.366;2023-12-20T08:23:34;18.98;;;3.38;;
20480;SDS011;10399;50.754;3.366;2023-12-20T08:26:05;25.02;;;3.17;;
20480;SDS011;10399;50.754;3.366;2023-12-20T08:28:36;21.40;;;2.97;;
20480;SDS011;10399;50.754;3.366;2023-12-20T08:31:04;13.80;;;3.17;;
20480;SDS011;10399;50.754;3.366;2023-12-20T08:33:31;15.57;;;3.38;;
20480;SDS011;10399;50.754;3.366;2023-12-20T08:35:58;17.08;;;3.28;;
20480;SDS011;10399;50.754;3.366;2023-12-20T08:38:31;24.30;;;3.20;;
20480;SDS011;10399;50.754;3.366;2023-12-20T08:40:58;17.98;;;3.35;;
20480;SDS011;10399;50.754;3.366;2023-12-20T08:43:27;9.95;;;2.78;;
20480;SDS011;10399;50.754;3.366;2023-12-20T08:45:55;16.10;;;3.17;;
20480;SDS011;10399;50.754;3.366;2023-12-20T08:48:22;20.70;;;3.15;;
20480;SDS011;10399;50.754;3.366;2023-12-20T08:50:48;23.20;;;3.42;;
20480;SDS011;10399;50.754;3.366;2023-12-20T08:53:18;13.95;;;3.05;;
20480;SDS011;10399;50.754;3.366;2023-12-20T08:55:45;17.63;;;3.67;;
20480;SDS011;10399;50.754;3.366;2023-12-20T08:58:13;19.20;;;3.45;;
20480;SDS011;10399;50.754;3.366;2023-12-20T09:00:40;15.02;;;3.22;;
20480;SDS011;10399;50.754;3.366;2023-12-20T09:03:07;18.90;;;3.65;;
20480;SDS011;10399;50.754;3.366;2023-12-20T09:05:34;16.40;;;2.83;;
20480;SDS011;10399;50.754;3.366;2023-12-20T09:08:01;15.32;;;2.88;;
20480;SDS011;10399;50.754;3.366;2023-12-20T09:10:28;19.23;;;3.42;;
20480;SDS011;10399;50.754;3.366;2023-12-20T09:12:56;16.33;;;3.30;;
20480;SDS011;10399;50.754;3.366;2023-12-20T09:15:24;16.73;;;3.17;;
20480;SDS011;10399;50.754;3.366;2023-12-20T09:17:52;19.27;;;3.95;;
20480;SDS011;10399;50.754;3.366;2023-12-20T09:20:20;15.63;;;2.85;;
20480;SDS011;10399;50.754;3.366;2023-12-20T09:22:47;17.08;;;2.72;;
20480;SDS011;10399;50.754;3.366;2023-12-20T09:25:14;11.85;;;2.97;;
20480;SDS011;10399;50.754;3.366;2023-12-20T09:27:45;20.73;;;3.08;;
20480;SDS011;10399;50.754;3.366;2023-12-20T09:30:13;14.63;;;3.25;;
20480;SDS011;10399;50.754;3.366;2023-12-20T09:32:52;14.20;;;3.85;;
20480;SDS011;10399;50.754;3.366;2023-12-20T09:35:20;21.30;;;3.55;;
20480;SDS011;10399;50.754;3.366;2023-12-20T09:37:48;18.92;;;3.28;;
20480;SDS011;10399;50.754;3.366;2023-12-20T09:40:17;14.10;;;3.45;;
20480;SDS011;10399;50.754;3.366;2023-12-20T09:43:04;22.17;;;3.65;;
20480;SDS011;10399;50.754;3.366;2023-12-20T09:45:38;17.65;;;3.88;;
20480;SDS011;10399;50.754;3.366;2023-12-20T09:48:07;15.60;;;2.85;;
20480;SDS011;10399;50.754;3.366;2023-12-20T09:50:40;17.77;;;3.42;;
20480;SDS011;10399;50.754;3.366;2023-12-20T09:53:10;18.48;;;4.00;;
20480;SDS011;10399;50.754;3.366;2023-12-20T09:55:41;22.27;;;4.00;;
20480;SDS011;10399;50.754;3.366;2023-12-20T09:58:08;16.55;;;3.30;;
20480;SDS011;10399;50.754;3.366;2023-12-20T10:00:36;16.90;;;3.08;;
20480;SDS011;10399;50.754;3.366;2023-12-20T10:03:03;19.25;;;3.25;;
20480;SDS011;10399;50.754;3.366;2023-12-20T10:05:33;15.75;;;3.25;;
20480;SDS011;10399;50.754;3.366;2023-12-20T10:08:01;14.98;;;3.47;;
20480;SDS011;10399;50.754;3.366;2023-12-20T10:10:29;18.23;;;3.53;;
20480;SDS011;10399;50.754;3.366;2023-12-20T10:13:11;17.73;;;3.35;;
20480;SDS011;10399;50.754;3.366;2023-12-20T10:15:40;15.52;;;3.13;;
20480;SDS011;10399;50.754;3.366;2023-12-20T10:18:08;15.20;;;3.38;;
20480;SDS011;10399;50.754;3.366;2023-12-20T10:20:37;16.23;;;3.10;;
20480;SDS011;10399;50.754;3.366;2023-12-20T10:23:06;14.77;;;2.80;;
20480;SDS011;10399;50.754;3.366;2023-12-20T10:25:33;15.27;;;3.33;;
20480;SDS011;10399;50.754;3.366;2023-12-20T10:31:05;26.58;;;3.85;;
20480;SDS011;10399;50.754;3.366;2023-12-20T10:33:35;19.35;;;3.30;;
20480;SDS011;10399;50.754;3.366;2023-12-20T10:36:02;26.27;;;3.50;;
20480;SDS011;10399;50.754;3.366;2023-12-20T10:38:30;14.73;;;2.88;;
20480;SDS011;10399;50.754;3.366;2023-12-20T10:40:58;14.23;;;3.65;;
20480;SDS011;10399;50.754;3.366;2023-12-20T10:43:26;19.17;;;3.42;;
20480;SDS011;10399;50.754;3.366;2023-12-20T10:45:55;12.68;;;3.10;;
20480;SDS011;10399;50.754;3.366;2023-12-20T10:48:23;24.27;;;3.65;;
20480;SDS011;10399;50.754;3.366;2023-12-20T10:50:56;19.92;;;4.35;;
20480;SDS011;10399;50.754;3.366;2023-12-20T10:53:27;18.25;;;3.47;;
20480;SDS011;10399;50.754;3.366;2023-12-20T10:55:57;20.05;;;3.22;;
20480;SDS011;10399;50.754;3.366;2023-12-20T10:58:29;17.27;;;3.45;;
20480;SDS011;10399;50.754;3.366;2023-12-20T11:01:01;13.82;;;2.67;;
20480;SDS011;10399;50.754;3.366;2023-12-20T11:03:34;17.45;;;3.30;;
20480;SDS011;10399;50.754;3.366;2023-12-20T11:06:08;17.45;;;3.33;;
20480;SDS011;10399;50.754;3.366;2023-12-20T11:09:06;17.65;;;3.30;;
20480;SDS011;10399;50.754;3.366;2023-12-20T11:17:20;14.85;;;3.33;;
20480;SDS011;10399;50.754;3.366;2023-12-20T11:22:26;17.77;;;3.17;;
20480;SDS011;10399;50.754;3.366;2023-12-20T11:25:03;24.85;;;3.70;;
20480;SDS011;10399;50.754;3.366;2023-12-20T11:27:35;18.63;;;3.15;;
20480;SDS011;10399;50.754;3.366;2023-12-20T11:30:06;21.33;;;4.53;;
20480;SDS011;10399;50.754;3.366;2023-12-20T11:32:36;15.25;;;3.50;;
20480;SDS011;10399;50.754;3.366;2023-12-20T11:35:37;16.38;;;3.45;;
20480;SDS011;10399;50.754;3.366;2023-12-20T11:37:57;17.10;;;3.20;;
20480;SDS011;10399;50.754;3.366;2023-12-20T11:40:24;17.75;;;4.00;;
20480;SDS011;10399;50.754;3.366;2023-12-20T11:42:52;19.63;;;2.78;;
20480;SDS011;10399;50.754;3.366;2023-12-20T11:45:21;20.13;;;3.80;;
20480;SDS011;10399;50.754;3.366;2023-12-20T11:47:53;15.60;;;3.35;;
20480;SDS011;10399;50.754;3.366;2023-12-20T11:50:22;18.67;;;3.38;;
20480;SDS011;10399;50.754;3.366;2023-12-20T11:52:51;16.60;;;2.83;;
20480;SDS011;10399;50.754;3.366;2023-12-20T11:55:19;17.92;;;2.92;;
20480;SDS011;10399;50.754;3.366;2023-12-20T11:57:46;19.00;;;3.33;;
20480;SDS011;10399;50.754;3.366;2023-12-20T12:00:14;11.65;;;3.30;;
20480;SDS011;10399;50.754;3.366;2023-12-20T12:02:42;25.73;;;4.15;;
20480;SDS011;10399;50.754;3.366;2023-12-20T12:05:12;18.85;;;3.20;;
20480;SDS011;10399;50.754;3.366;2023-12-20T12:07:39;16.05;;;2.80;;
20480;SDS011;10399;50.754;3.366;2023-12-20T12:10:06;16.77;;;3.05;;
20480;SDS011;10399;50.754;3.366;2023-12-20T12:12:34;7.85;;;2.70;;
20480;SDS011;10399;50.754;3.366;2023-12-20T12:15:01;16.77;;;2.75;;
20480;SDS011;10399;50.754;3.366;2023-12-20T12:17:29;15.32;;;2.80;;
20480;SDS011;10399;50.754;3.366;2023-12-20T12:20:05;13.48;;;2.53;;
20480;SDS011;10399;50.754;3.366;2023-12-20T12:22:36;19.45;;;3.45;;
20480;SDS011;10399;50.754;3.366;2023-12-20T12:25:11;21.10;;;3.90;;
20480;SDS011;10399;50.754;3.366;2023-12-20T12:27:40;18.88;;;3.42;;
20480;SDS011;10399;50.754;3.366;2023-12-20T12:30:08;18.02;;;2.58;;
20480;SDS011;10399;50.754;3.366;2023-12-20T12:32:36;16.35;;;3.20;;
20480;SDS011;10399;50.754;3.366;2023-12-20T12:35:04;15.25;;;2.88;;
20480;SDS011;10399;50.754;3.366;2023-12-20T12:37:39;20.08;;;3.20;;
20480;SDS011;10399;50.754;3.366;2023-12-20T12:40:11;12.73;;;3.63;;
20480;SDS011;10399;50.754;3.366;2023-12-20T12:42:40;13.30;;;3.40;;
20480;SDS011;10399;50.754;3.366;2023-12-20T12:45:11;13.38;;;2.45;;
20480;SDS011;10399;50.754;3.366;2023-12-20T12:47:39;15.82;;;3.30;;
20480;SDS011;10399;50.754;3.366;2023-12-20T12:50:06;21.03;;;3.63;;
20480;SDS011;10399;50.754;3.366;2023-12-20T12:52:34;17.15;;;3.50;;
20480;SDS011;10399;50.754;3.366;2023-12-20T12:55:02;16.20;;;2.92;;
20480;SDS011;10399;50.754;3.366;2023-12-20T12:57:32;20.45;;;3.83;;
20480;SDS011;10399;50.754;3.366;2023-12-20T13:00:02;14.07;;;2.85;;
20480;SDS011;10399;50.754;3.366;2023-12-20T13:02:30;15.68;;;2.95;;
20480;SDS011;10399;50.754;3.366;2023-12-20T13:04:57;11.57;;;2.40;;
20480;SDS011;10399;50.754;3.366;2023-12-20T13:07:24;24.10;;;2.67;;
20480;SDS011;10399;50.754;3.366;2023-12-20T13:09:51;11.43;;;2.65;;
20480;SDS011;10399;50.754;3.366;2023-12-20T13:12:18;14.00;;;2.97;;
20480;SDS011;10399;50.754;3.366;2023-12-20T13:14:45;13.93;;;2.45;;
20480;SDS011;10399;50.754;3.366;2023-12-20T13:17:12;12.82;;;2.97;;
20480;SDS011;10399;50.754;3.366;2023-12-20T13:19:43;14.40;;;2.35;;
20480;SDS011;10399;50.754;3.366;2023-12-20T13:22:13;12.13;;;2.47;;
20480;SDS011;10399;50.754;3.366;2023-12-20T13:24:40;15.85;;;2.40;;
20480;SDS011;10399;50.754;3.366;2023-12-20T13:27:07;17.52;;;2.85;;
20480;SDS011;10399;50.754;3.366;2023-12-20T13:29:34;13.30;;;2.53;;
20480;SDS011;10399;50.754;3.366;2023-12-20T13:32:05;14.52;;;2.70;;
20480;SDS011;10399;50.754;3.366;2023-12-20T13:34:33;13.93;;;2.50;;
20480;SDS011;10399;50.754;3.366;2023-12-20T13:37:00;7.30;;;2.53;;
20480;SDS011;10399;50.754;3.366;2023-12-20T13:39:27;11.80;;;1.80;;
20480;SDS011;10399;50.754;3.366;2023-12-20T13:41:53;14.70;;;2.60;;
20480;SDS011;10399;50.754;3.366;2023-12-20T13:44:24;14.50;;;2.20;;
20480;SDS011;10399;50.754;3.366;2023-12-20T13:46:51;8.93;;;2.53;;
20480;SDS011;10399;50.754;3.366;2023-12-20T13:49:21;10.73;;;2.75;;
20480;SDS011;10399;50.754;3.366;2023-12-20T13:51:53;10.98;;;2.65;;
20480;SDS011;10399;50.754;3.366;2023-12-20T13:54:21;12.00;;;3.28;;
20480;SDS011;10399;50.754;3.366;2023-12-20T13:56:56;13.45;;;2.72;;
20480;SDS011;10399;50.754;3.366;2023-12-20T13:59:37;9.68;;;2.35;;
20480;SDS011;10399;50.754;3.366;2023-12-20T14:02:05;13.73;;;3.03;;
20480;SDS011;10399;50.754;3.366;2023-12-20T14:04:32;14.65;;;2.42;;
20480;SDS011;10399;50.754;3.366;2023-12-20T14:07:09;17.27;;;2.88;;
20480;SDS011;10399;50.754;3.366;2023-12-20T14:09:38;12.88;;;3.00;;
20480;SDS011;10399;50.754;3.366;2023-12-20T14:12:12;9.23;;;2.28;;
20480;SDS011;10399;50.754;3.366;2023-12-20T14:14:40;18.50;;;2.63;;
20480;SDS011;10399;50.754;3.366;2023-12-20T14:17:07;11.68;;;2.00;;
20480;SDS011;10399;50.754;3.366;2023-12-20T14:19:34;15.95;;;2.40;;
20480;SDS011;10399;50.754;3.366;2023-12-20T14:22:01;12.95;;;2.53;;
20480;SDS011;10399;50.754;3.366;2023-12-20T14:24:30;17.10;;;2.88;;
20480;SDS011;10399;50.754;3.366;2023-12-20T14:26:57;15.65;;;3.22;;
20480;SDS011;10399;50.754;3.366;2023-12-20T14:29:25;14.48;;;2.55;;
20480;SDS011;10399;50.754;3.366;2023-12-20T14:31:53;12.50;;;2.50;;
20480;SDS011;10399;50.754;3.366;2023-12-20T14:34:20;9.85;;;2.53;;
20480;SDS011;10399;50.754;3.366;2023-12-20T14:36:48;13.30;;;2.13;;
20480;SDS011;10399;50.754;3.366;2023-12-20T14:39:16;14.40;;;2.50;;
20480;SDS011;10399;50.754;3.366;2023-12-20T14:41:43;9.38;;;2.83;;
20480;SDS011;10399;50.754;3.366;2023-12-20T14:44:11;13.70;;;2.92;;
20480;SDS011;10399;50.754;3.366;2023-12-20T14:46:38;11.68;;;2.42;;
20480;SDS011;10399;50.754;3.366;2023-12-20T14:49:07;12.10;;;2.80;;
20480;SDS011;10399;50.754;3.366;2023-12-20T14:51:35;17.83;;;2.50;;
20480;SDS011;10399;50.754;3.366;2023-12-20T14:54:03;10.75;;;2.80;;
20480;SDS011;10399;50.754;3.366;2023-12-20T14:56:34;20.30;;;2.45;;
20480;SDS011;10399;50.754;3.366;2023-12-20T14:59:01;10.85;;;1.77;;
20480;SDS011;10399;50.754;3.366;2023-12-20T15:01:29;15.02;;;2.20;;
20480;SDS011;10399;50.754;3.366;2023-12-20T15:03:57;17.35;;;2.95;;
20480;SDS011;10399;50.754;3.366;2023-12-20T15:06:24;13.02;;;2.47;;
20480;SDS011;10399;50.754;3.366;2023-12-20T15:08:52;14.45;;;2.20;;
20480;SDS011;10399;50.754;3.366;2023-12-20T15:11:19;16.30;;;3.30;;